Time;durP1;ratioP1;P1;durP2;ratioP2;P2;SDS_P1;SDS_P2;PMS_P1;PMS_P2;Temp;Humidity;BMP_temperature;BMP_pressure;BME280_temperature;BME280_humidity;BME280_pressure;Samples;Min_cycle;Max_cycle;Signal;HPM_P1;HPM_P2
2022/09/27 00:00:50;;;;;;;;;2.00;2.00;;;;;15.10;60.00;99798.16;2096329;28;46340;-63
2022/09/27 00:01:50;;;;;;;;;2.33;1.33;;;;;15.09;59.90;99801.78;2095332;28;45585;-63
2022/09/27 00:02:51;;;;;;;;;2.33;2.33;;;;;15.08;59.93;99796.53;2102628;28;45520;-64
2022/09/27 00:03:54;;;;;;;;;1.67;1.33;;;;;15.08;60.36;99802.72;2099092;28;46682;-64
2022/09/27 00:04:55;;;;;;;;;2.50;1.25;;;;;15.08;59.67;99801.88;2103354;27;46660;-63
2022/09/27 00:06:01;;;;;;;;;0.33;0.33;;;;;15.09;60.35;99788.41;2110940;27;46294;-64
2022/09/27 00:07:01;;;;;;;;;3.00;2.00;;;;;15.10;60.22;99786.63;2091714;28;46351;-64
2022/09/27 00:08:02;;;;;;;;;2.67;2.33;;;;;15.09;59.85;99798.25;2096155;28;46828;-64
2022/09/27 00:09:03;;;;;;;;;2.67;1.67;;;;;15.10;60.04;99799.97;2096362;28;45809;-66
2022/09/27 00:10:03;;;;;;;;;1.67;1.67;;;;;15.10;59.65;99800.84;2097390;28;46477;-63
2022/09/27 00:11:18;;;;;;;;;4.33;4.00;;;;;15.10;60.13;99799.97;2096595;28;46870;-63
2022/09/27 00:12:19;;;;;;;;;1.75;1.75;;;;;15.07;60.02;99793.00;2095546;28;46672;-63
2022/09/27 00:13:19;;;;;;;;;5.00;3.00;;;;;15.05;60.01;99799.38;2094427;28;46625;-63
2022/09/27 00:14:19;;;;;;;;;1.33;1.33;;;;;15.01;59.74;99794.22;2091518;28;45629;-64
2022/09/27 00:15:20;;;;;;;;;2.00;2.00;;;;;15.01;59.58;99793.34;2092168;28;46339;-64
2022/09/27 00:16:22;;;;;;;;;1.00;1.00;;;;;14.99;59.98;99801.44;2092848;28;46849;-63
2022/09/27 00:17:22;;;;;;;;;1.75;1.75;;;;;14.97;60.20;99792.63;2094720;28;46219;-62
2022/09/27 00:18:22;;;;;;;;;2.00;2.00;;;;;14.96;60.03;99798.91;2093270;28;47088;-63
2022/09/27 00:19:24;;;;;;;;;2.33;1.33;;;;;14.91;59.75;99797.47;2096344;28;46275;-64
2022/09/27 00:20:25;;;;;;;;;2.25;2.25;;;;;14.89;59.76;99799.34;2096198;28;46292;-63
2022/09/27 00:21:25;;;;;;;;;1.00;1.00;;;;;14.87;59.64;99799.44;2085099;28;45056;-65
2022/09/27 00:22:26;;;;;;;;;3.67;1.67;;;;;14.84;59.35;99796.91;2081462;28;46939;-64
2022/09/27 00:23:26;;;;;;;;;3.33;2.00;;;;;14.81;59.98;99799.75;2093697;28;46503;-63
2022/09/27 00:24:26;;;;;;;;;0.67;0.67;;;;;14.81;59.82;99799.75;2087443;28;46031;-64
2022/09/27 00:25:27;;;;;;;;;1.67;1.33;;;;;14.82;59.60;99801.47;2085991;28;45296;-63
2022/09/27 00:26:28;;;;;;;;;1.67;1.67;;;;;14.83;59.57;99800.53;2097249;28;46280;-63
2022/09/27 00:27:28;;;;;;;;;2.25;1.50;;;;;14.85;60.03;99803.13;2098572;28;46958;-64
2022/09/27 00:28:29;;;;;;;;;1.67;1.33;;;;;14.85;59.30;99801.31;2088630;28;46186;-64
2022/09/27 00:29:30;;;;;;;;;1.50;1.00;;;;;14.86;59.30;99807.50;2087205;28;46587;-64
2022/09/27 00:30:30;;;;;;;;;2.33;1.67;;;;;14.86;59.83;99808.38;2097609;28;46508;-63
2022/09/27 00:31:31;;;;;;;;;2.67;1.33;;;;;14.86;59.92;99811.03;2097615;28;46080;-65
2022/09/27 00:32:31;;;;;;;;;2.67;2.67;;;;;14.87;59.92;99814.59;2097764;28;46736;-63
2022/09/27 00:33:32;;;;;;;;;1.67;1.33;;;;;14.88;59.18;99808.31;2098448;28;45546;-63
2022/09/27 00:34:32;;;;;;;;;1.33;1.33;;;;;14.87;59.32;99812.78;2094053;28;46438;-64
2022/09/27 00:35:32;;;;;;;;;3.00;1.33;;;;;14.88;59.67;99811.00;2098155;28;46756;-66
2022/09/27 00:36:33;;;;;;;;;2.33;0.33;;;;;14.89;59.34;99815.38;2103947;28;46580;-64
2022/09/27 00:37:34;;;;;;;;;2.00;1.00;;;;;14.89;59.37;99821.59;2100610;28;46783;-64
2022/09/27 00:38:34;;;;;;;;;2.33;2.33;;;;;14.90;59.69;99817.97;2105247;28;45520;-64
2022/09/27 00:39:34;;;;;;;;;1.33;1.33;;;;;14.90;59.71;99822.44;2095438;28;46027;-65
2022/09/27 00:40:35;;;;;;;;;3.00;3.00;;;;;14.90;59.51;99831.31;2096555;28;46341;-65
2022/09/27 00:41:36;;;;;;;;;1.33;1.33;;;;;14.88;59.36;99822.53;2097952;28;46710;-66
2022/09/27 00:42:36;;;;;;;;;5.00;1.00;;;;;14.87;59.32;99823.47;2095122;28;46938;-64
2022/09/27 00:43:49;;;;;;;;;1.67;1.67;;;;;14.85;59.56;99822.66;2098156;28;46271;-65
2022/09/27 00:45:02;;;;;;;;;0.75;0.75;;;;;14.84;59.79;99825.44;2097654;28;47018;-64
2022/09/27 00:46:03;;;;;;;;;3.25;1.25;;;;;14.83;59.22;99826.38;2089827;28;46686;-65
2022/09/27 00:47:25;;;;;;;;;1.33;1.33;;;;;14.81;59.70;99822.94;2096810;28;46337;-66
2022/09/27 00:48:30;;;;;;;;;1.00;1.00;;;;;14.81;59.53;99826.47;2094960;28;46574;-66
2022/09/27 00:49:54;;;;;;;;;1.75;1.00;;;;;14.81;59.85;99822.94;2092159;28;47025;-64
2022/09/27 00:51:00;;;;;;;;;5.00;3.00;;;;;14.80;59.80;99827.41;2092339;28;46771;-64
2022/09/27 00:52:30;;;;;;;;;0.50;0.50;;;;;14.79;59.78;99828.34;2099365;28;46950;-66
2022/09/27 00:53:39;;;;;;;;;2.25;2.25;;;;;14.76;60.17;99828.53;2097644;28;46505;-66
2022/09/27 00:54:43;;;;;;;;;1.25;0.75;;;;;14.74;60.34;99830.41;2095404;28;46870;-64
2022/09/27 00:55:57;;;;;;;;;1.75;1.75;;;;;14.75;60.23;99831.28;2088157;28;46655;-64
2022/09/27 00:56:58;;;;;;;;;0.75;0.25;;;;;14.73;60.34;99826.00;2092223;28;47082;-64
2022/09/27 00:57:59;;;;;;;;;2.33;2.00;;;;;14.72;60.14;99837.63;2096287;28;45842;-65
2022/09/27 00:59:12;;;;;;;;;4.00;2.33;;;;;14.69;60.64;99833.31;2096730;28;46306;-66
2022/09/27 01:00:15;;;;;;;;;2.25;2.25;;;;;14.70;60.32;99836.84;2098057;28;45796;-63
2022/09/27 01:01:16;;;;;;;;;2.00;2.00;;;;;14.69;60.88;99830.66;2099190;28;46539;-64
2022/09/27 01:02:17;;;;;;;;;2.25;2.25;;;;;14.69;60.10;99833.31;2097002;28;46458;-63
2022/09/27 01:03:33;;;;;;;;;4.00;4.00;;;;;14.67;60.57;99832.53;2096787;28;45716;-63
2022/09/27 01:04:37;;;;;;;;;2.50;2.50;;;;;14.67;60.55;99837.00;2099362;28;46464;-64
2022/09/27 01:05:39;;;;;;;;;2.50;2.25;;;;;14.63;60.80;99836.31;2095727;28;46825;-63
2022/09/27 01:06:40;;;;;;;;;1.75;1.75;;;;;14.63;61.04;99836.31;2098926;28;46995;-62
2022/09/27 01:07:41;;;;;;;;;2.67;1.00;;;;;14.65;61.09;99841.56;2105270;28;46581;-64
2022/09/27 01:08:41;;;;;;;;;3.25;2.50;;;;;14.64;61.26;99834.50;2098625;28;45162;-63
2022/09/27 01:09:42;;;;;;;;;0.33;0.33;;;;;14.63;60.70;99839.00;2101962;28;46962;-62
2022/09/27 01:11:24;;;;;;;;;2.00;2.00;;;;;14.64;60.96;99839.84;2096492;28;45421;-64
2022/09/27 01:12:42;;;;;;;;;2.25;1.50;;;;;14.63;61.03;99846.16;2072294;28;46332;-63
2022/09/27 01:13:56;;;;;;;;;3.75;1.75;;;;;14.62;61.21;99839.06;2068020;28;46446;-64
2022/09/27 01:15:31;;;;;;;;;2.00;2.00;;;;;14.61;60.96;99843.56;2066810;28;45150;-64
2022/09/27 01:16:53;;;;;;;;;1.50;1.25;;;;;14.59;61.22;99839.22;2069539;28;46434;-62
2022/09/27 01:18:15;;;;;;;;;2.00;1.75;;;;;14.56;61.51;99845.59;2069960;28;46457;-62
2022/09/27 01:19:42;;;;;;;;;2.75;2.75;;;;;14.54;61.57;99844.81;2074727;28;46569;-63
2022/09/27 01:21:04;;;;;;;;;2.00;2.00;;;;;14.53;61.18;99843.06;2033440;28;46526;-63
2022/09/27 01:22:14;;;;;;;;;4.25;3.75;;;;;14.52;61.55;99851.16;2030602;29;46630;-63
2022/09/27 01:23:52;;;;;;;;;2.00;2.00;;;;;14.50;61.67;99850.38;2036005;28;47235;-63
2022/09/27 01:25:01;;;;;;;;;6.25;3.00;;;;;14.48;62.00;99853.09;2031991;28;46627;-63
2022/09/27 01:26:47;;;;;;;;;2.00;2.00;;;;;14.46;61.55;99849.66;2030956;28;46645;-63
2022/09/27 01:28:20;;;;;;;;;1.50;1.50;;;;;14.46;61.66;99857.66;2032806;28;46059;-64
2022/09/27 01:29:32;;;;;;;;;2.50;2.50;;;;;14.45;61.63;99852.41;2032042;28;47163;-64
2022/09/27 01:30:57;;;;;;;;;1.75;0.75;;;;;14.45;61.73;99845.28;2031805;28;46416;-63
2022/09/27 01:32:10;;;;;;;;;2.00;2.00;;;;;14.45;61.72;99839.94;2030405;29;46823;-64
2022/09/27 01:33:31;;;;;;;;;4.00;3.75;;;;;14.45;61.74;99839.06;2034026;28;46415;-63
2022/09/27 01:34:55;;;;;;;;;1.50;1.50;;;;;14.43;61.73;99847.97;2032897;28;46983;-63
2022/09/27 01:36:03;;;;;;;;;1.00;1.00;;;;;14.41;62.09;99844.53;2032106;28;46908;-63
2022/09/27 01:37:22;;;;;;;;;3.00;1.00;;;;;14.42;62.15;99853.41;2031256;28;45787;-63
2022/09/27 01:38:31;;;;;;;;;2.00;1.50;;;;;14.41;61.89;99849.00;2030625;29;45714;-63
2022/09/27 01:39:31;;;;;;;;;3.25;1.50;;;;;14.41;62.34;99849.00;2036079;28;46351;-64
2022/09/27 01:40:42;;;;;;;;;3.00;2.00;;;;;14.42;62.05;99853.41;2030895;28;46621;-64
2022/09/27 01:41:52;;;;;;;;;3.25;1.75;;;;;14.42;61.75;99848.06;2030672;29;46943;-63
2022/09/27 01:43:11;;;;;;;;;3.00;3.00;;;;;14.41;61.82;99844.53;2032269;28;46324;-62
2022/09/27 01:44:23;;;;;;;;;2.25;1.75;;;;;14.43;61.58;99852.47;2029372;28;46334;-63
2022/09/27 01:45:53;;;;;;;;;2.00;2.00;;;;;14.41;61.62;99857.88;2031060;28;46589;-63
2022/09/27 01:46:57;;;;;;;;;2.00;2.00;;;;;14.40;61.68;99848.16;2035670;28;46619;-64
2022/09/27 01:48:06;;;;;;;;;2.50;2.50;;;;;14.40;61.61;99850.81;2058213;28;46356;-63
2022/09/27 01:49:15;;;;;;;;;1.50;1.50;;;;;14.40;61.72;99844.63;2057169;28;46223;-65
2022/09/27 01:50:39;;;;;;;;;0.75;0.75;;;;;14.41;61.86;99852.53;2050693;28;46444;-63
2022/09/27 01:52:00;;;;;;;;;2.00;2.00;;;;;14.43;61.66;99847.97;2060197;28;46308;-66
2022/09/27 01:53:17;;;;;;;;;1.00;1.00;;;;;14.43;61.79;99852.47;2055280;28;45706;-63
2022/09/27 01:54:26;;;;;;;;;1.75;1.75;;;;;14.43;62.06;99850.66;2060359;28;46349;-62
2022/09/27 01:55:32;;;;;;;;;0.75;0.75;;;;;14.43;61.59;99850.66;2058030;28;46510;-62
2022/09/27 01:56:40;;;;;;;;;1.50;1.50;;;;;14.42;61.93;99851.59;2053080;28;46190;-64
2022/09/27 01:57:46;;;;;;;;;1.50;1.50;;;;;14.40;61.79;99850.81;2054303;28;46572;-65
2022/09/27 01:58:56;;;;;;;;;1.50;1.50;;;;;14.39;61.97;99849.09;2087066;28;46459;-64
2022/09/27 02:00:07;;;;;;;;;1.75;1.75;;;;;14.39;61.99;99850.91;2096524;28;46147;-64
2022/09/27 02:01:10;;;;;;;;;1.25;0.00;;;;;14.37;62.13;99850.97;2088776;28;45734;-64
2022/09/27 02:02:13;;;;;;;;;1.00;0.75;;;;;14.37;62.15;99856.31;2090330;28;46373;-63
2022/09/27 02:03:20;;;;;;;;;0.75;0.75;;;;;14.36;61.85;99854.59;2099388;28;46912;-64
2022/09/27 02:04:25;;;;;;;;;2.00;2.00;;;;;14.35;62.19;99860.84;2097195;28;46572;-64
2022/09/27 02:05:32;;;;;;;;;3.00;1.00;;;;;14.36;61.77;99856.41;2096330;28;46950;-63
2022/09/27 02:06:41;;;;;;;;;0.75;0.75;;;;;14.36;62.07;99864.41;2096124;28;46869;-64
2022/09/27 02:07:51;;;;;;;;;2.00;2.00;;;;;14.35;62.02;99858.19;2095030;28;47373;-64
2022/09/27 02:08:58;;;;;;;;;2.00;2.00;;;;;14.36;61.88;99856.41;2097177;28;46249;-64
2022/09/27 02:10:05;;;;;;;;;2.00;2.00;;;;;14.36;62.05;99864.41;2097268;28;46426;-63
2022/09/27 02:11:09;;;;;;;;;2.25;2.25;;;;;14.36;61.99;99857.28;2096922;28;46289;-65
2022/09/27 02:12:14;;;;;;;;;1.25;1.25;;;;;14.37;62.14;99858.13;2096247;28;46441;-63
2022/09/27 02:13:18;;;;;;;;;1.50;1.50;;;;;14.36;61.90;99859.94;2096618;28;46504;-62
2022/09/27 02:14:25;;;;;;;;;2.00;1.75;;;;;14.36;61.96;99862.59;2096145;28;45545;-62
2022/09/27 02:15:26;;;;;;;;;2.00;2.00;;;;;14.37;61.73;99858.13;2096888;28;46328;-63
2022/09/27 02:16:41;;;;;;;;;1.00;0.33;;;;;14.35;61.90;99854.66;2096906;28;46627;-63
2022/09/27 02:17:52;;;;;;;;;3.75;0.75;;;;;14.35;61.68;99857.31;2095529;28;45715;-64
2022/09/27 02:19:05;;;;;;;;;1.50;1.50;;;;;14.35;61.78;99851.97;2091234;28;46911;-64
2022/09/27 02:20:25;;;;;;;;;1.00;1.00;;;;;14.35;61.70;99849.31;2089935;28;46689;-64
2022/09/27 02:21:39;;;;;;;;;1.00;0.00;;;;;14.35;62.02;99844.84;2096684;28;45909;-64
2022/09/27 02:22:58;;;;;;;;;1.00;1.00;;;;;14.33;61.84;99849.41;2099037;28;46421;-64
2022/09/27 02:24:03;;;;;;;;;2.75;2.75;;;;;14.34;61.79;99839.56;2092292;28;46435;-65
2022/09/27 02:25:15;;;;;;;;;1.00;1.00;;;;;14.32;61.58;99842.31;2098980;28;46464;-63
2022/09/27 02:26:21;;;;;;;;;2.50;1.25;;;;;14.32;61.75;99849.47;2103714;28;46852;-63
2022/09/27 02:27:30;;;;;;;;;1.00;1.00;;;;;14.31;62.04;99848.59;2099685;28;46586;-63
2022/09/27 02:28:43;;;;;;;;;1.00;1.00;;;;;14.33;62.02;99845.84;2094161;28;45730;-64
2022/09/27 02:29:57;;;;;;;;;0.75;0.75;;;;;14.31;61.87;99845.06;2089772;28;46422;-63
2022/09/27 02:30:58;;;;;;;;;1.00;1.00;;;;;14.32;62.06;99841.47;2102058;28;46323;-63
2022/09/27 02:31:58;;;;;;;;;2.67;1.67;;;;;14.32;61.61;99836.13;2091608;28;46556;-63
2022/09/27 02:32:58;;;;;;;;;2.00;2.00;;;;;14.32;61.85;99838.78;2096950;28;45964;-64
2022/09/27 02:34:12;;;;;;;;;2.00;2.00;;;;;14.30;62.04;99833.53;2097875;28;45653;-62
2022/09/27 02:35:16;;;;;;;;;2.00;1.00;;;;;14.31;61.90;99837.06;2096115;28;45942;-63
2022/09/27 02:36:16;;;;;;;;;1.75;1.75;;;;;14.30;62.02;99836.22;2091747;28;46278;-64
2022/09/27 02:37:17;;;;;;;;;1.00;0.33;;;;;14.30;61.75;99841.56;2099574;28;46011;-65
2022/09/27 02:38:18;;;;;;;;;3.00;1.67;;;;;14.31;61.80;99837.06;2097174;28;46192;-63
2022/09/27 02:39:19;;;;;;;;;1.00;1.00;;;;;14.31;62.05;99832.59;2089095;28;47987;-63
2022/09/27 02:40:20;;;;;;;;;0.75;0.75;;;;;14.34;62.20;99834.25;2100053;28;46771;-64
2022/09/27 02:41:22;;;;;;;;;1.00;1.00;;;;;14.33;62.13;99835.19;2097121;28;46825;-64
2022/09/27 02:42:23;;;;;;;;;1.00;1.00;;;;;14.33;61.79;99833.38;2099991;28;46475;-64
2022/09/27 02:43:29;;;;;;;;;2.50;1.25;;;;;14.33;61.77;99832.50;2094373;28;45154;-63
2022/09/27 02:44:30;;;;;;;;;1.25;1.00;;;;;14.33;61.80;99835.19;2099180;28;46564;-64
2022/09/27 02:45:57;;;;;;;;;1.67;1.67;;;;;14.31;61.65;99843.28;2101482;28;46458;-63
2022/09/27 02:47:23;;;;;;;;;3.00;3.00;;;;;14.31;61.65;99848.59;2101031;28;46748;-63
2022/09/27 02:48:45;;;;;;;;;2.00;2.00;;;;;14.31;62.06;99851.28;2100446;27;46753;-63
2022/09/27 02:50:07;;;;;;;;;1.00;1.00;;;;;14.31;62.20;99847.75;2098398;28;45082;-62
2022/09/27 02:51:37;;;;;;;;;0.25;0.25;;;;;14.32;61.94;99841.47;2097574;28;46835;-64
2022/09/27 02:52:56;;;;;;;;;1.50;1.25;;;;;14.32;61.78;99837.00;2094926;28;46773;-64
2022/09/27 02:54:08;;;;;;;;;1.75;1.00;;;;;14.32;62.19;99839.66;2091535;28;46365;-63
2022/09/27 02:55:42;;;;;;;;;1.50;0.00;;;;;14.30;61.95;99836.22;2096417;28;45696;-64
2022/09/27 02:57:10;;;;;;;;;1.00;1.00;;;;;14.28;62.06;99839.91;2093895;28;46079;-62
2022/09/27 02:58:49;;;;;;;;;1.00;1.00;;;;;14.27;61.98;99838.19;2092671;28;46827;-64
2022/09/27 02:59:55;;;;;;;;;1.25;1.25;;;;;14.24;62.25;99838.34;2096073;28;46584;-62
2022/09/27 03:01:22;;;;;;;;;0.00;0.00;;;;;14.23;61.92;99848.16;2092325;28;47860;-64
2022/09/27 03:02:41;;;;;;;;;1.00;0.75;;;;;14.22;62.09;99846.41;2088483;28;46403;-63
2022/09/27 03:03:59;;;;;;;;;1.00;1.00;;;;;14.21;62.07;99847.34;2093790;28;46454;-63
2022/09/27 03:05:08;;;;;;;;;2.00;0.50;;;;;14.20;62.49;99845.63;2093129;28;46807;-65
2022/09/27 03:06:15;;;;;;;;;2.00;1.00;;;;;14.20;62.33;99844.75;2098785;28;46183;-62
2022/09/27 03:07:16;;;;;;;;;2.00;1.00;;;;;14.19;62.28;99849.22;2093358;28;46710;-63
2022/09/27 03:08:17;;;;;;;;;0.33;0.33;;;;;14.16;62.47;99848.53;2100131;28;46131;-63
2022/09/27 03:09:20;;;;;;;;;0.75;0.75;;;;;14.14;62.65;99848.59;2092954;28;46937;-65
2022/09/27 03:10:24;;;;;;;;;1.75;1.00;;;;;14.13;62.89;99844.22;2094497;28;46922;-64
2022/09/27 03:11:24;;;;;;;;;1.75;0.75;;;;;14.13;62.59;99845.06;2103231;28;46698;-63
2022/09/27 03:12:25;;;;;;;;;1.67;1.00;;;;;14.11;62.93;99841.63;2098277;28;46889;-64
2022/09/27 03:13:26;;;;;;;;;2.00;1.00;;;;;14.12;62.99;99850.50;2093040;28;46716;-64
2022/09/27 03:14:26;;;;;;;;;1.75;1.75;;;;;14.12;62.96;99843.34;2092176;28;46128;-63
2022/09/27 03:15:27;;;;;;;;;0.00;0.00;;;;;14.10;63.11;99844.34;2093779;28;46684;-64
2022/09/27 03:16:27;;;;;;;;;1.33;1.33;;;;;14.08;62.89;99841.75;2103119;28;45549;-65
2022/09/27 03:17:27;;;;;;;;;1.00;1.00;;;;;14.07;63.13;99849.84;2094199;28;46726;-63
2022/09/27 03:18:28;;;;;;;;;4.33;1.00;;;;;14.05;63.37;99844.59;2093397;28;46275;-63
2022/09/27 03:19:28;;;;;;;;;1.00;0.00;;;;;14.05;63.53;99847.25;2098791;28;46244;-65
2022/09/27 03:20:29;;;;;;;;;3.00;2.00;;;;;14.05;63.50;99852.59;2097187;28;46716;-64
2022/09/27 03:21:30;;;;;;;;;3.00;1.00;;;;;14.05;63.99;99847.25;2100450;28;46677;-62
2022/09/27 03:22:30;;;;;;;;;1.00;1.00;;;;;14.06;63.64;99843.66;2097107;28;46592;-63
2022/09/27 03:23:31;;;;;;;;;2.00;2.00;;;;;14.07;63.84;99849.84;2093819;28;46086;-64
2022/09/27 03:24:31;;;;;;;;;2.00;1.00;;;;;14.06;64.26;99834.78;2100142;28;46665;-63
2022/09/27 03:25:31;;;;;;;;;1.67;1.67;;;;;14.05;64.09;99843.72;2097327;28;46292;-62
2022/09/27 03:26:32;;;;;;;;;1.33;0.00;;;;;14.03;64.33;99838.47;2097019;28;46344;-64
2022/09/27 03:27:32;;;;;;;;;1.00;1.00;;;;;14.03;65.00;99835.81;2099302;28;46361;-64
2022/09/27 03:28:32;;;;;;;;;2.00;2.00;;;;;14.02;64.49;99838.56;2091079;28;46760;-65
2022/09/27 03:29:33;;;;;;;;;1.67;1.67;;;;;14.00;64.80;99837.78;2099268;28;46624;-64
2022/09/27 03:30:34;;;;;;;;;3.00;3.00;;;;;14.00;64.90;99840.44;2091170;28;46439;-65
2022/09/27 03:31:35;;;;;;;;;2.00;2.00;;;;;14.00;64.53;99843.97;2073411;28;46869;-64
2022/09/27 03:32:35;;;;;;;;;1.00;1.00;;;;;14.00;64.75;99843.09;2077475;28;46428;-65
2022/09/27 03:33:35;;;;;;;;;2.00;2.00;;;;;13.99;65.06;99846.72;2089146;28;46296;-65
2022/09/27 03:34:36;;;;;;;;;0.00;0.00;;;;;13.99;64.66;99849.38;2095296;28;46487;-65
2022/09/27 03:35:37;;;;;;;;;2.00;2.00;;;;;13.97;64.65;99844.09;2095393;28;46750;-64
2022/09/27 03:36:37;;;;;;;;;1.75;0.75;;;;;13.96;65.20;99845.03;2096179;28;46834;-65
2022/09/27 03:37:38;;;;;;;;;1.00;1.00;;;;;13.96;65.17;99844.16;2098162;28;46506;-66
2022/09/27 03:38:39;;;;;;;;;2.50;1.50;;;;;13.93;65.03;99850.53;2098204;28;46208;-63
2022/09/27 03:39:39;;;;;;;;;0.33;0.33;;;;;13.93;65.34;99852.34;2090464;28;46106;-63
2022/09/27 03:40:39;;;;;;;;;1.00;1.00;;;;;13.92;65.00;99846.13;2095027;28;46320;-65
2022/09/27 03:41:40;;;;;;;;;1.67;1.00;;;;;13.92;64.92;99846.13;2087864;28;46525;-64
2022/09/27 03:42:40;;;;;;;;;0.67;0.67;;;;;13.92;65.18;99845.28;2096104;28;46759;-64
2022/09/27 03:43:41;;;;;;;;;1.67;1.67;;;;;13.90;65.05;99848.03;2099506;28;45675;-63
2022/09/27 03:44:42;;;;;;;;;0.67;0.67;;;;;13.90;65.49;99844.50;2095670;28;45684;-63
2022/09/27 03:45:44;;;;;;;;;2.00;1.00;;;;;13.90;65.40;99848.03;2089980;28;46278;-64
2022/09/27 03:46:44;;;;;;;;;1.00;1.00;;;;;13.90;65.65;99850.69;2087439;28;46511;-63
2022/09/27 03:47:44;;;;;;;;;2.00;2.00;;;;;13.88;65.80;99841.91;2094480;28;46247;-65
2022/09/27 03:48:45;;;;;;;;;1.00;1.00;;;;;13.88;65.72;99844.56;2100900;28;46786;-65
2022/09/27 03:49:45;;;;;;;;;0.67;0.00;;;;;13.87;65.51;99847.31;2094424;28;46199;-64
2022/09/27 03:50:45;;;;;;;;;2.00;2.00;;;;;13.86;65.98;99842.91;2099729;28;46576;-64
2022/09/27 03:51:46;;;;;;;;;3.00;2.00;;;;;13.87;65.89;99841.97;2095966;28;45971;-63
2022/09/27 03:52:46;;;;;;;;;2.33;2.33;;;;;13.88;65.75;99843.72;2086532;28;46489;-63
2022/09/27 03:53:46;;;;;;;;;2.67;1.00;;;;;13.88;66.00;99838.38;2093174;28;46140;-64
2022/09/27 03:54:47;;;;;;;;;2.00;2.00;;;;;13.87;66.26;99837.50;2093156;28;46768;-63
2022/09/27 03:55:47;;;;;;;;;2.00;1.00;;;;;13.87;66.01;99836.66;2099835;28;46791;-63
2022/09/27 03:56:48;;;;;;;;;2.00;2.00;;;;;13.87;66.40;99832.19;2097864;28;46209;-64
2022/09/27 03:57:48;;;;;;;;;0.00;0.00;;;;;13.89;66.11;99834.75;2094121;28;46559;-64
2022/09/27 03:58:48;;;;;;;;;2.00;2.00;;;;;13.88;66.08;99838.38;2094477;28;46407;-63
2022/09/27 03:59:49;;;;;;;;;2.00;1.00;;;;;13.87;66.30;99842.84;2075247;28;46644;-64
2022/09/27 04:00:49;;;;;;;;;1.00;1.00;;;;;13.86;65.96;99838.44;2081783;28;45595;-65
2022/09/27 04:01:49;;;;;;;;;2.67;2.00;;;;;13.86;65.88;99835.78;2093281;28;46851;-63
2022/09/27 04:02:50;;;;;;;;;2.33;2.00;;;;;13.85;66.11;99842.06;2078617;28;47284;-63
2022/09/27 04:03:50;;;;;;;;;1.00;1.00;;;;;13.86;66.49;99834.91;2079541;28;46436;-64
2022/09/27 04:04:50;;;;;;;;;2.67;2.00;;;;;13.87;65.88;99836.66;2094592;28;46183;-64
2022/09/27 04:05:52;;;;;;;;;1.00;1.00;;;;;13.86;65.81;99833.13;2097559;28;46389;-64
2022/09/27 04:06:52;;;;;;;;;4.00;2.25;;;;;13.86;66.01;99822.44;2095883;28;46519;-62
2022/09/27 04:07:53;;;;;;;;;1.67;1.67;;;;;13.87;66.22;99832.19;2092948;28;46731;-60
2022/09/27 04:08:54;;;;;;;;;1.00;1.00;;;;;13.87;66.13;99824.19;2095270;28;46397;-60
2022/09/27 04:09:54;;;;;;;;;2.00;2.00;;;;;13.86;66.00;99825.13;2096346;28;45516;-61
2022/09/27 04:10:55;;;;;;;;;2.33;2.00;;;;;13.86;66.00;99825.13;2098367;28;46616;-61
2022/09/27 04:11:55;;;;;;;;;6.00;2.75;;;;;13.83;65.69;99826.09;2098008;28;46553;-61
2022/09/27 04:12:56;;;;;;;;;2.00;2.00;;;;;13.83;65.73;99825.25;2099358;28;46600;-62
2022/09/27 04:13:57;;;;;;;;;1.00;1.00;;;;;13.81;66.24;99825.31;2098114;28;47589;-64
2022/09/27 04:14:58;;;;;;;;;2.00;1.50;;;;;13.82;66.49;99831.50;2091194;28;46669;-63
2022/09/27 04:15:58;;;;;;;;;1.00;1.00;;;;;13.83;66.01;99831.44;2095060;28;46815;-61
2022/09/27 04:16:58;;;;;;;;;2.00;2.00;;;;;13.84;65.88;99826.97;2096706;28;46426;-62
2022/09/27 04:17:59;;;;;;;;;2.00;2.00;;;;;13.86;66.06;99829.59;2099944;28;46319;-63
2022/09/27 04:19:00;;;;;;;;;4.00;1.33;;;;;13.87;65.84;99826.84;2090207;28;46460;-62
2022/09/27 04:20:02;;;;;;;;;1.00;1.00;;;;;13.88;66.36;99825.03;2089736;28;46420;-61
2022/09/27 04:21:02;;;;;;;;;1.75;1.75;;;;;13.90;66.23;99826.69;2097932;28;45242;-61
2022/09/27 04:22:03;;;;;;;;;2.00;2.00;;;;;13.93;66.47;99821.19;2097689;28;46162;-62
2022/09/27 04:23:03;;;;;;;;;1.33;1.33;;;;;13.95;66.43;99829.09;2094997;28;46749;-62
2022/09/27 04:24:05;;;;;;;;;1.00;1.00;;;;;13.96;66.19;99829.03;2098453;28;46201;-64
2022/09/27 04:25:07;;;;;;;;;1.00;1.00;;;;;13.99;66.03;99818.22;2092579;28;46325;-61
2022/09/27 04:26:17;;;;;;;;;0.75;0.75;;;;;14.00;66.12;99813.75;2099819;28;45371;-62
2022/09/27 04:27:18;;;;;;;;;1.00;1.00;;;;;14.01;65.89;99819.00;2066022;28;46701;-61
2022/09/27 04:28:18;;;;;;;;;1.50;0.50;;;;;14.04;65.62;99818.84;2067995;28;46152;-63
2022/09/27 04:29:19;;;;;;;;;1.00;1.00;;;;;14.03;65.63;99816.25;2096618;28;46584;-62
2022/09/27 04:30:21;;;;;;;;;2.00;1.00;;;;;14.03;65.75;99822.47;2097218;28;46329;-63
2022/09/27 04:31:22;;;;;;;;;1.00;1.00;;;;;14.04;65.63;99826.84;2100234;28;46912;-61
2022/09/27 04:32:22;;;;;;;;;1.25;1.25;;;;;14.07;65.55;99815.16;2088175;28;46405;-63
2022/09/27 04:33:23;;;;;;;;;1.33;1.33;;;;;14.09;65.78;99821.28;2090108;28;46499;-64
2022/09/27 04:36:25;;;;;;;;;2.00;1.00;;;;;14.10;65.88;99821.22;2105685;28;46351;-62
2022/09/27 04:37:02;;;;;;;;;1.00;1.00;;;;;14.15;65.43;99823.66;2088505;28;46840;-61
2022/09/27 04:38:03;;;;;;;;;1.00;1.00;;;;;14.16;65.53;99824.50;2090463;28;46490;-62
2022/09/27 04:39:06;;;;;;;;;1.33;1.33;;;;;14.18;65.43;99822.63;2089270;28;46342;-64
2022/09/27 04:40:07;;;;;;;;;1.75;0.50;;;;;14.18;65.25;99817.28;2092854;28;46903;-63
2022/09/27 04:41:07;;;;;;;;;1.00;1.00;;;;;14.18;65.30;99819.97;2097333;28;46618;-61
2022/09/27 04:42:08;;;;;;;;;0.00;0.00;;;;;14.20;65.10;99826.94;2093604;28;46503;-62
2022/09/27 04:43:09;;;;;;;;;2.00;1.33;;;;;14.21;65.52;99812.66;2095688;28;46953;-62
2022/09/27 04:44:10;;;;;;;;;0.67;0.67;;;;;14.22;65.46;99811.72;2095202;28;45902;-62
2022/09/27 04:45:12;;;;;;;;;0.25;0.25;;;;;14.24;65.61;99817.00;2095563;28;45803;-62
2022/09/27 04:46:13;;;;;;;;;2.00;2.00;;;;;14.25;65.28;99816.06;2097053;28;46659;-63
2022/09/27 04:47:13;;;;;;;;;2.00;2.00;;;;;14.27;65.02;99825.69;2095024;28;46736;-61
2022/09/27 04:48:14;;;;;;;;;0.00;0.00;;;;;14.27;65.30;99817.69;2096975;28;45558;-62
2022/09/27 04:49:14;;;;;;;;;0.67;0.67;;;;;14.28;65.20;99814.09;2089121;28;46548;-63
2022/09/27 04:50:21;;;;;;;;;1.00;1.00;;;;;14.31;65.17;99813.91;2096622;28;46713;-63
2022/09/27 04:51:22;;;;;;;;;1.25;1.25;;;;;14.32;64.81;99818.31;2070828;28;46596;-62
2022/09/27 04:52:22;;;;;;;;;1.00;1.00;;;;;14.33;64.97;99821.84;2071302;28;46478;-62
2022/09/27 04:53:23;;;;;;;;;3.00;3.00;;;;;14.33;64.77;99814.69;2096362;28;45912;-62
2022/09/27 04:54:23;;;;;;;;;2.00;2.00;;;;;14.34;64.92;99824.44;2094776;28;47165;-63
2022/09/27 04:55:24;;;;;;;;;1.67;0.33;;;;;14.35;64.91;99823.47;2097770;28;46288;-64
2022/09/27 04:56:25;;;;;;;;;0.67;0.67;;;;;14.35;64.87;99818.16;2097498;28;45209;-61
2022/09/27 04:57:25;;;;;;;;;0.33;0.33;;;;;14.36;64.88;99819.03;2091218;28;46589;-61
2022/09/27 04:58:26;;;;;;;;;1.67;1.67;;;;;14.35;64.90;99825.28;2087793;28;48380;-60
2022/09/27 04:59:27;;;;;;;;;3.00;1.33;;;;;14.36;64.91;99816.38;2095032;28;45554;-61
2022/09/27 05:00:27;;;;;;;;;1.67;1.67;;;;;14.36;64.98;99827.91;2094155;28;46588;-62
2022/09/27 05:01:29;;;;;;;;;0.75;0.75;;;;;14.38;64.87;99827.81;2092131;28;46709;-61
2022/09/27 05:02:30;;;;;;;;;1.00;1.00;;;;;14.39;65.02;99821.53;2086884;28;45238;-62
2022/09/27 05:03:31;;;;;;;;;1.00;1.00;;;;;14.40;65.01;99817.94;2086451;28;47063;-62
2022/09/27 05:04:31;;;;;;;;;1.75;1.75;;;;;14.41;64.63;99822.31;2096857;28;46091;-61
2022/09/27 05:05:32;;;;;;;;;1.00;1.00;;;;;14.42;64.92;99824.91;2094160;28;46565;-61
2022/09/27 05:06:32;;;;;;;;;1.00;1.00;;;;;14.43;64.31;99821.28;2080786;28;47100;-61
2022/09/27 05:07:34;;;;;;;;;0.67;0.67;;;;;14.44;64.61;99822.19;2088585;28;45589;-62
2022/09/27 05:08:34;;;;;;;;;1.00;1.00;;;;;14.46;64.71;99827.44;2087848;28;46830;-61
2022/09/27 05:09:35;;;;;;;;;1.00;1.00;;;;;14.47;64.75;99835.38;2082297;28;46046;-62
2022/09/27 05:10:35;;;;;;;;;2.67;1.67;;;;;14.48;64.67;99831.75;2092603;28;46859;-63
2022/09/27 05:11:36;;;;;;;;;2.67;0.67;;;;;14.49;64.54;99832.66;2070596;28;46435;-63